Time;durP1;ratioP1;P1;durP2;ratioP2;P2;SDS_P1;SDS_P2;PMS_P1;PMS_P2;Temp;Humidity;BMP_temperature;BMP_pressure;BME280_temperature;BME280_humidity;BME280_pressure;Samples;Min_cycle;Max_cycle;Signal;HPM_P1;HPM_P2
2022/12/05 00:01:34;;;;;;;;;;;;;;;1.35;100.00;96232.38;5087467;28;20376;-79
2022/12/05 00:04:01;;;;;;;;;;;;;;;1.40;100.00;96230.09;5092638;28;19951;-84
2022/12/05 00:06:27;;;;;;;;;;;;;;;1.45;100.00;96222.66;5091942;28;20402;-76
2022/12/05 00:08:53;;;;;;;;;;;;;;;1.50;100.00;96225.53;5093172;28;20298;-77
2022/12/05 00:11:21;;;;;;;;;;;;;;;1.53;100.00;96227.78;5090617;28;19986;-78
2022/12/05 00:13:47;;;;;;;;;;;;;;;1.57;100.00;96236.00;5093127;28;19944;-78
2022/12/05 00:16:15;;;;;;;;;;;;;;;1.57;100.00;96234.22;5091951;28;19953;-78
2022/12/05 00:18:41;;;;;;;;;;;;;;;1.60;100.00;96238.28;5092001;28;19952;-77
2022/12/05 00:21:11;;;;;;;;;;;;;;;1.63;100.00;96235.34;5064596;28;19982;-77
2022/12/05 00:23:36;;;;;;;;;;;;;;;1.63;100.00;96246.47;5092907;28;20407;-77
2022/12/05 00:26:04;;;;;;;;;;;;;;;1.66;100.00;96249.72;5080013;28;19954;-77
2022/12/05 00:28:30;;;;;;;;;;;;;;;1.67;100.00;96256.50;5096885;28;19946;-76
2022/12/05 00:30:56;;;;;;;;;;;;;;;1.68;100.00;96265.84;5085259;28;19972;-77
2022/12/05 00:33:22;;;;;;;;;;;;;;;1.70;100.00;96264.75;5078531;28;20065;-78
2022/12/05 00:35:48;;;;;;;;;;;;;;;1.71;100.00;96260.38;5077005;28;19971;-78
2022/12/05 00:38:14;;;;;;;;;;;;;;;1.74;100.00;96265.19;5085002;28;20037;-78
2022/12/05 00:40:40;;;;;;;;;;;;;;;1.74;100.00;96255.69;5096423;28;19951;-78
2022/12/05 00:43:05;;;;;;;;;;;;;;;1.74;100.00;96267.78;5089542;28;20004;-79
2022/12/05 00:45:32;;;;;;;;;;;;;;;1.73;100.00;96272.16;5096276;28;19955;-78
2022/12/05 00:47:58;;;;;;;;;;;;;;;1.70;100.00;96271.66;5088779;28;20428;-79
2022/12/05 00:50:24;;;;;;;;;;;;;;;1.68;100.00;96279.63;5092880;28;19966;-78
2022/12/05 00:52:50;;;;;;;;;;;;;;;1.69;100.00;96273.47;5085142;28;19942;-79
2022/12/05 00:55:16;;;;;;;;;;;;;;;1.69;100.00;96280.41;5094697;28;19958;-78
2022/12/05 00:57:42;;;;;;;;;;;;;;;1.68;100.00;96274.44;5087451;28;20071;-78
2022/12/05 01:00:08;;;;;;;;;;;;;;;1.68;100.00;96287.38;5093823;28;19959;-78
2022/12/05 01:02:34;;;;;;;;;;;;;;;1.65;100.00;96277.34;5096192;28;19959;-78
2022/12/05 01:04:59;;;;;;;;;;;;;;;1.63;100.00;96280.09;5094891;28;19963;-78
2022/12/05 01:07:25;;;;;;;;;;;;;;;1.63;100.00;96279.28;5080121;28;19990;-78
2022/12/05 01:09:51;;;;;;;;;;;;;;;1.62;100.00;96281.06;5069156;28;19963;-78
2022/12/05 01:12:17;;;;;;;;;;;;;;;1.59;100.00;96275.41;5088218;28;19962;-78
2022/12/05 01:14:43;;;;;;;;;;;;;;;1.54;100.00;96290.63;5095580;28;19955;-79
2022/12/05 01:17:09;;;;;;;;;;;;;;;1.47;100.00;96290.47;5092829;28;20381;-79
2022/12/05 01:19:35;;;;;;;;;;;;;;;1.44;100.00;96283.03;5095791;28;19974;-78
2022/12/05 01:22:01;;;;;;;;;;;;;;;1.38;100.00;96287.09;5090815;28;19990;-78
2022/12/05 01:24:28;;;;;;;;;;;;;;;1.37;100.00;96292.44;5094570;28;19956;-78
2022/12/05 01:26:54;;;;;;;;;;;;;;;1.35;100.00;96304.72;5093357;28;19956;-77
2022/12/05 01:29:21;;;;;;;;;;;;;;;1.31;100.00;96299.06;5077325;28;19954;-76
2022/12/05 01:31:47;;;;;;;;;;;;;;;1.31;100.00;96303.41;5093435;28;20361;-79
2022/12/05 01:34:14;;;;;;;;;;;;;;;1.31;100.00;96306.81;5094504;28;19958;-78
2022/12/05 01:36:40;;;;;;;;;;;;;;;1.30;100.00;96309.53;5092277;28;19982;-78
2022/12/05 01:39:06;;;;;;;;;;;;;;;1.25;100.00;96316.97;5083290;28;19960;-79
2022/12/05 01:41:34;;;;;;;;;;;;;;;1.21;100.00;96311.31;5095364;28;19952;-77
2022/12/05 01:44:04;;;;;;;;;;;;;;;1.21;100.00;96303.59;5094218;28;19940;-78
2022/12/05 01:46:32;;;;;;;;;;;;;;;1.23;100.00;96306.00;5094559;28;19955;-77
2022/12/05 01:49:02;;;;;;;;;;;;;;;1.25;100.00;96301.50;5093996;28;19960;-77
2022/12/05 01:51:28;;;;;;;;;;;;;;;1.29;100.00;96303.56;5093984;28;19970;-77
2022/12/05 01:53:54;;;;;;;;;;;;;;;1.33;100.00;96297.13;5093453;28;19949;-79
2022/12/05 01:56:20;;;;;;;;;;;;;;;1.32;100.00;96303.22;5094874;28;20050;-79
2022/12/05 01:58:47;;;;;;;;;;;;;;;1.32;100.00;96315.34;5091690;28;20025;-77
2022/12/05 02:01:14;;;;;;;;;;;;;;;1.32;100.00;96323.09;5094940;28;19952;-78
2022/12/05 02:03:43;;;;;;;;;;;;;;;1.31;100.00;96324.09;5093899;28;19954;-77
2022/12/05 02:06:09;;;;;;;;;;;;;;;1.37;100.00;96328.59;5093869;28;19948;-75
2022/12/05 02:08:35;;;;;;;;;;;;;;;1.50;100.00;96330.69;5091850;28;20332;-77
2022/12/05 02:11:05;;;;;;;;;;;;;;;1.54;100.00;96337.94;5093554;28;19968;-76
2022/12/05 02:13:36;;;;;;;;;;;;;;;1.55;100.00;96334.38;5093362;28;19957;-78
2022/12/05 02:16:07;;;;;;;;;;;;;;;1.59;100.00;96338.25;5094494;28;19968;-76
2022/12/05 02:18:45;;;;;;;;;;;;;;;1.59;100.00;96353.75;5091231;28;19960;-79
2022/12/05 02:21:18;;;;;;;;;;;;;;;1.58;100.00;96364.28;5090993;28;20419;-79
2022/12/05 02:23:50;;;;;;;;;;;;;;;1.47;100.00;96360.25;5094603;28;19950;-75
2022/12/05 02:26:21;;;;;;;;;;;;;;;1.41;100.00;96363.47;5071630;28;19958;-76
2022/12/05 02:28:58;;;;;;;;;;;;;;;1.40;100.00;96369.59;5085715;28;19947;-77
2022/12/05 02:31:30;;;;;;;;;;;;;;;1.42;100.00;96371.06;5092914;28;19966;-78
2022/12/05 02:34:02;;;;;;;;;;;;;;;1.43;100.00;96379.63;5094302;28;20432;-75
2022/12/05 02:36:28;;;;;;;;;;;;;;;1.44;100.00;96367.53;5091678;28;19977;-78
2022/12/05 02:39:01;;;;;;;;;;;;;;;1.44;100.00;96376.06;5089234;28;19980;-78
2022/12/05 02:41:37;;;;;;;;;;;;;;;1.46;100.00;96371.53;5094264;28;19940;-77
2022/12/05 02:44:10;;;;;;;;;;;;;;;1.48;100.00;96366.22;5092269;28;20411;-78
2022/12/05 02:46:39;;;;;;;;;;;;;;;1.49;100.00;96357.50;5094266;28;19950;-77
2022/12/05 02:49:07;;;;;;;;;;;;;;;1.53;100.00;96345.84;5083908;28;19947;-77
2022/12/05 02:51:36;;;;;;;;;;;;;;;1.56;100.00;96351.50;5090485;28;19966;-77
2022/12/05 02:54:05;;;;;;;;;;;;;;;1.60;100.00;96344.25;5092985;28;19947;-79
2022/12/05 02:56:32;;;;;;;;;;;;;;;1.62;100.00;96330.19;5091971;28;19955;-78
2022/12/05 02:58:57;;;;;;;;;;;;;;;1.68;100.00;96344.25;5093047;28;20288;-78
2022/12/05 03:01:26;;;;;;;;;;;;;;;1.71;100.00;96338.72;5091994;28;20054;-77
2022/12/05 03:03:52;;;;;;;;;;;;;;;1.76;100.00;96340.81;5080742;28;19956;-78
2022/12/05 03:06:29;;;;;;;;;;;;;;;1.79;100.00;96346.47;5092739;28;19952;-79
2022/12/05 03:09:01;;;;;;;;;;;;;;;1.82;100.00;96353.88;5087686;28;19948;-77
2022/12/05 03:11:35;;;;;;;;;;;;;;;1.86;100.00;96356.94;5090620;28;19976;-75
2022/12/05 03:14:03;;;;;;;;;;;;;;;1.86;100.00;96353.56;5092635;28;19957;-78
2022/12/05 03:16:56;;;;;;;;;;;;;;;1.92;100.00;96353.72;5074426;28;19953;-78
2022/12/05 03:19:40;;;;;;;;;;;;;;;1.94;100.00;96356.13;5072736;28;20315;-79
2022/12/05 03:22:08;;;;;;;;;;;;;;;1.86;100.00;96364.72;5092394;28;19955;-79
2022/12/05 03:24:35;;;;;;;;;;;;;;;1.76;100.00;96353.75;5093697;28;19953;-78
2022/12/05 03:27:24;;;;;;;;;;;;;;;1.72;100.00;96352.44;5090988;28;19949;-79
2022/12/05 03:29:53;;;;;;;;;;;;;;;1.70;100.00;96341.47;5092919;28;20330;-79
2022/12/05 03:32:28;;;;;;;;;;;;;;;1.70;100.00;96357.81;5092480;28;19972;-79
2022/12/05 03:35:04;;;;;;;;;;;;;;;1.74;100.00;96350.50;5075219;28;19970;-79
2022/12/05 03:37:56;;;;;;;;;;;;;;;1.74;100.00;96346.16;5090359;28;19959;-79
2022/12/05 03:40:26;;;;;;;;;;;;;;;1.77;100.00;96329.50;5089512;28;19949;-79
2022/12/05 03:43:00;;;;;;;;;;;;;;;1.80;100.00;96332.56;5116432;28;19949;-81
2022/12/05 03:45:37;;;;;;;;;;;;;;;1.84;100.00;96338.22;5088544;28;19956;-78
2022/12/05 03:48:13;;;;;;;;;;;;;;;1.86;100.00;96335.47;5091364;28;19949;-79
2022/12/05 03:50:41;;;;;;;;;;;;;;;1.86;100.00;96345.81;5085707;28;20013;-78
2022/12/05 03:53:10;;;;;;;;;;;;;;;1.86;100.00;96351.78;5092634;28;19949;-79
2022/12/05 03:55:38;;;;;;;;;;;;;;;1.81;100.00;96357.44;5092926;28;19957;-81
2022/12/05 03:58:14;;;;;;;;;;;;;;;1.77;100.00;96350.19;5092984;28;19943;-80
2022/12/05 04:00:42;;;;;;;;;;;;;;;1.74;100.00;96348.75;5093148;28;19949;-77
2022/12/05 04:03:10;;;;;;;;;;;;;;;1.75;100.00;96352.94;5077996;28;19962;-80
2022/12/05 04:05:51;;;;;;;;;;;;;;;1.79;100.00;96361.19;5095733;28;19952;-76
2022/12/05 04:08:23;;;;;;;;;;;;;;;1.76;100.00;96364.88;5097180;28;19958;-79
2022/12/05 04:10:51;;;;;;;;;;;;;;;1.73;100.00;96370.38;5095965;28;19960;-80
2022/12/05 04:13:23;;;;;;;;;;;;;;;1.72;100.00;96371.38;5096535;28;20406;-78
2022/12/05 04:18:44;;;;;;;;;;;;;;;1.71;100.00;96361.19;5096975;28;19948;-78
2022/12/05 04:25:31;;;;;;;;;;;;;;;1.77;100.00;96352.78;5097114;28;20342;-78
2022/12/05 04:27:03;;;;;;;;;;;;;;;1.81;100.00;96347.09;5091063;28;19956;-75
2022/12/05 04:29:31;;;;;;;;;;;;;;;1.85;100.00;96350.19;5095749;28;19953;-77
2022/12/05 04:31:58;;;;;;;;;;;;;;;1.87;100.00;96357.75;5096368;28;20370;-78
2022/12/05 04:34:27;;;;;;;;;;;;;;;1.89;100.00;96361.81;5078719;28;19956;-80
2022/12/05 04:36:55;;;;;;;;;;;;;;;1.88;100.00;96375.69;5088256;28;19962;-79
2022/12/05 04:39:29;;;;;;;;;;;;;;;1.85;100.00;96376.03;5094675;28;19951;-78
2022/12/05 04:41:59;;;;;;;;;;;;;;;1.84;100.00;96371.81;5086179;28;19952;-78
2022/12/05 04:44:28;;;;;;;;;;;;;;;1.85;100.00;96364.88;5095158;28;19948;-78
2022/12/05 04:46:55;;;;;;;;;;;;;;;1.88;100.00;96372.31;5093332;28;19960;-78
2022/12/05 04:49:24;;;;;;;;;;;;;;;1.90;100.00;96373.75;5078175;28;19954;-78
2022/12/05 04:51:51;;;;;;;;;;;;;;;1.90;100.00;96378.13;5093199;28;19966;-78
2022/12/05 04:54:23;;;;;;;;;;;;;;;1.85;100.00;96378.63;5086810;28;19963;-77
2022/12/05 04:56:51;;;;;;;;;;;;;;;1.78;100.00;96388.78;5091982;28;19954;-77
2022/12/05 04:59:17;;;;;;;;;;;;;;;1.76;100.00;96388.16;5094159;28;19956;-77
2022/12/05 05:02:03;;;;;;;;;;;;;;;1.75;100.00;96388.34;5090784;28;19948;-77
2022/12/05 05:04:33;;;;;;;;;;;;;;;1.76;100.00;96382.97;5081055;28;19962;-79
2022/12/05 05:06:59;;;;;;;;;;;;;;;1.81;100.00;96387.69;5096061;28;19944;-78
2022/12/05 05:09:25;;;;;;;;;;;;;;;1.82;100.00;96382.31;5087250;28;20426;-78
2022/12/05 05:11:50;;;;;;;;;;;;;;;1.86;100.00;96380.22;5126355;27;19996;-78
2022/12/05 05:14:16;;;;;;;;;;;;;;;1.88;100.00;96377.47;5090116;28;19965;-78
2022/12/05 05:16:43;;;;;;;;;;;;;;;1.88;100.00;96391.22;5087188;28;19961;-77
2022/12/05 05:19:10;;;;;;;;;;;;;;;1.87;100.00;96407.72;5092265;28;19967;-78
2022/12/05 05:21:37;;;;;;;;;;;;;;;1.88;100.00;96404.13;5094612;28;19952;-78
2022/12/05 05:24:04;;;;;;;;;;;;;;;1.90;100.00;96409.94;5094217;28;19967;-78
2022/12/05 05:26:30;;;;;;;;;;;;;;;1.91;100.00;96410.75;5095566;28;19950;-78
2022/12/05 05:28:57;;;;;;;;;;;;;;;1.92;100.00;96407.22;5087819;28;20427;-76
2022/12/05 05:31:23;;;;;;;;;;;;;;;1.93;100.00;96411.41;5087437;28;19968;-77
2022/12/05 05:33:49;;;;;;;;;;;;;;;1.93;100.00;96422.56;5085113;28;20388;-77
2022/12/05 05:36:16;;;;;;;;;;;;;;;1.90;100.00;96424.66;5090295;28;19978;-78
2022/12/05 05:38:43;;;;;;;;;;;;;;;1.92;100.00;96423.53;5095075;28;19978;-77
2022/12/05 05:41:17;;;;;;;;;;;;;;;1.98;100.00;96429.84;5095483;28;19945;-77
2022/12/05 05:43:43;;;;;;;;;;;;;;;1.98;100.00;96429.84;5095166;28;19945;-78
2022/12/05 05:46:09;;;;;;;;;;;;;;;1.97;100.00;96431.59;5095421;28;20405;-77
2022/12/05 05:48:35;;;;;;;;;;;;;;;1.97;100.00;96433.38;5095171;28;19953;-78
2022/12/05 05:51:02;;;;;;;;;;;;;;;1.97;100.00;96436.75;5093967;28;19988;-78
2022/12/05 05:53:28;;;;;;;;;;;;;;;1.95;100.00;96424.97;5094838;28;19941;-77
2022/12/05 05:55:54;;;;;;;;;;;;;;;1.95;100.00;96432.72;5095146;28;19996;-77
2022/12/05 05:58:20;;;;;;;;;;;;;;;1.95;100.00;96433.56;5094861;28;19997;-77
2022/12/05 06:00:46;;;;;;;;;;;;;;;1.96;100.00;96430.00;5095241;28;19957;-78
2022/12/05 06:03:12;;;;;;;;;;;;;;;1.95;100.00;96422.38;5093697;28;19951;-77
2022/12/05 06:05:38;;;;;;;;;;;;;;;1.96;100.00;96424.00;5094587;28;20001;-77
2022/12/05 06:08:04;;;;;;;;;;;;;;;1.96;100.00;96432.56;5093854;28;19996;-77
2022/12/05 06:10:30;;;;;;;;;;;;;;;1.97;100.00;96447.09;5093654;28;19949;-77
2022/12/05 06:12:56;;;;;;;;;;;;;;;1.93;100.00;96450.19;5093210;28;19962;-76
2022/12/05 06:15:23;;;;;;;;;;;;;;;1.89;100.00;96456.66;5094657;28;19955;-77
2022/12/05 06:17:48;;;;;;;;;;;;;;;1.86;100.00;96462.16;5094672;28;19961;-78
2022/12/05 06:20:14;;;;;;;;;;;;;;;1.82;100.00;96457.31;5094484;28;19954;-77
2022/12/05 06:22:40;;;;;;;;;;;;;;;1.78;100.00;96450.84;5093142;28;20023;-77
2022/12/05 06:25:07;;;;;;;;;;;;;;;1.76;100.00;96455.38;5093137;28;20339;-78
2022/12/05 06:27:33;;;;;;;;;;;;;;;1.74;100.00;96456.50;5094578;28;20325;-77
2022/12/05 06:29:59;;;;;;;;;;;;;;;1.76;100.00;96470.06;5094612;28;19942;-78
2022/12/05 06:32:27;;;;;;;;;;;;;;;1.78;100.00;96475.91;5093143;28;19961;-79
2022/12/05 06:34:52;;;;;;;;;;;;;;;1.81;100.00;96478.16;5093311;28;19980;-78
2022/12/05 06:37:18;;;;;;;;;;;;;;;1.86;100.00;96485.44;5093028;28;20049;-77
2022/12/05 06:39:44;;;;;;;;;;;;;;;1.90;100.00;96473.81;5076190;28;20459;-78
2022/12/05 06:42:10;;;;;;;;;;;;;;;1.93;100.00;96481.22;5094095;28;20300;-79
2022/12/05 06:44:37;;;;;;;;;;;;;;;1.95;100.00;96484.44;5093240;28;19950;-78
2022/12/05 06:47:03;;;;;;;;;;;;;;;1.97;100.00;96482.50;5094072;28;19951;-77
2022/12/05 06:49:31;;;;;;;;;;;;;;;1.98;100.00;96484.94;5093925;28;20009;-77
2022/12/05 06:51:58;;;;;;;;;;;;;;;2.00;100.00;96479.63;5080331;28;19976;-78
2022/12/05 06:54:24;;;;;;;;;;;;;;;2.02;100.00;96475.88;5093270;28;20357;-79
2022/12/05 06:56:49;;;;;;;;;;;;;;;2.05;100.00;96479.13;5093894;28;20037;-79
2022/12/05 06:59:15;;;;;;;;;;;;;;;2.06;100.00;96470.38;5092857;28;19977;-78
2022/12/05 07:01:42;;;;;;;;;;;;;;;2.07;100.00;96477.97;5093722;28;19952;-79
2022/12/05 07:04:16;;;;;;;;;;;;;;;2.09;100.00;96486.38;5093962;28;19952;-79
2022/12/05 07:06:43;;;;;;;;;;;;;;;2.11;100.00;96499.97;5092665;28;19947;-79
2022/12/05 07:09:09;;;;;;;;;;;;;;;2.11;100.00;96515.50;5092648;28;19947;-78
2022/12/05 07:11:34;;;;;;;;;;;;;;;2.12;100.00;96518.88;5092634;28;19970;-79
2022/12/05 07:14:01;;;;;;;;;;;;;;;2.13;100.00;96517.91;5093605;28;20480;-79
2022/12/05 07:16:27;;;;;;;;;;;;;;;2.08;100.00;96515.00;5093600;28;19950;-79
2022/12/05 07:18:52;;;;;;;;;;;;;;;2.05;100.00;96513.56;5092544;28;19957;-79
2022/12/05 07:21:20;;;;;;;;;;;;;;;2.06;100.00;96511.75;5093589;28;20456;-79
2022/12/05 07:23:47;;;;;;;;;;;;;;;2.10;100.00;96513.06;5093772;28;19959;-77
2022/12/05 07:26:14;;;;;;;;;;;;;;;2.12;100.00;96511.13;5092325;28;19950;-77
2022/12/05 07:28:40;;;;;;;;;;;;;;;2.16;100.00;96515.00;5092384;28;19949;-77
2022/12/05 07:31:07;;;;;;;;;;;;;;;2.19;100.00;96512.09;5092055;28;19958;-76
2022/12/05 07:33:33;;;;;;;;;;;;;;;2.18;100.00;96506.13;5092853;28;19952;-78
2022/12/05 07:36:04;;;;;;;;;;;;;;;2.21;100.00;96517.91;5093168;28;19968;-77
2022/12/05 07:38:30;;;;;;;;;;;;;;;2.21;100.00;96521.31;5097790;28;19963;-76
2022/12/05 07:40:56;;;;;;;;;;;;;;;2.21;100.00;96530.84;5097443;28;19978;-76
2022/12/05 07:43:22;;;;;;;;;;;;;;;2.21;100.00;96521.31;5097515;28;19947;-75
2022/12/05 07:45:48;;;;;;;;;;;;;;;2.23;100.00;96519.38;5096473;28;20439;-77
2022/12/05 07:48:14;;;;;;;;;;;;;;;2.24;100.00;96525.34;5097555;28;19954;-77
2022/12/05 07:50:40;;;;;;;;;;;;;;;2.26;100.00;96525.19;5097489;28;19962;-77
2022/12/05 07:53:06;;;;;;;;;;;;;;;2.24;100.00;96527.94;5097506;28;19974;-79
2022/12/05 07:55:32;;;;;;;;;;;;;;;2.24;100.00;96536.50;5097280;28;20059;-79
2022/12/05 07:57:58;;;;;;;;;;;;;;;2.26;100.00;96536.34;5079262;28;19984;-79
2022/12/05 08:00:23;;;;;;;;;;;;;;;2.28;100.00;96536.19;5096241;28;20036;-79
2022/12/05 08:02:49;;;;;;;;;;;;;;;2.31;100.00;96535.84;5095934;28;19955;-78
2022/12/05 08:05:15;;;;;;;;;;;;;;;2.37;100.00;96535.19;5079019;28;20447;-78
2022/12/05 08:07:42;;;;;;;;;;;;;;;2.40;100.00;96535.69;5097395;28;19959;-79
2022/12/05 08:10:08;;;;;;;;;;;;;;;2.44;100.00;96546.50;5097114;28;19952;-78
2022/12/05 08:12:33;;;;;;;;;;;;;;;2.46;100.00;96536.81;5078977;28;20332;-79
2022/12/05 08:14:59;;;;;;;;;;;;;;;2.47;100.00;96540.19;5095780;28;19969;-77
2022/12/05 08:17:28;;;;;;;;;;;;;;;2.52;100.00;96538.75;5097047;28;20320;-77
2022/12/05 08:19:54;;;;;;;;;;;;;;;2.57;100.00;96541.63;5096799;28;19946;-77
2022/12/05 08:22:20;;;;;;;;;;;;;;;2.61;100.00;96544.72;5097363;28;19952;-78
2022/12/05 08:24:48;;;;;;;;;;;;;;;2.62;100.00;96549.72;5096878;28;20407;-78
2022/12/05 08:27:14;;;;;;;;;;;;;;;2.64;100.00;96560.69;5095408;28;19946;-77
2022/12/05 08:29:40;;;;;;;;;;;;;;;2.64;100.00;96568.47;5096648;28;19944;-79
2022/12/05 08:32:06;;;;;;;;;;;;;;;2.63;100.00;96571.25;5095483;28;19992;-78
2022/12/05 08:34:33;;;;;;;;;;;;;;;2.62;100.00;96575.63;5095207;28;20392;-78
2022/12/05 08:36:59;;;;;;;;;;;;;;;2.64;100.00;96573.66;5095409;28;19952;-79
2022/12/05 08:39:26;;;;;;;;;;;;;;;2.67;100.00;96571.69;5095541;28;19992;-78
2022/12/05 08:41:52;;;;;;;;;;;;;;;2.70;100.00;96572.19;5095184;28;19949;-79
2022/12/05 08:44:18;;;;;;;;;;;;;;;2.78;100.00;96577.34;5096876;28;19954;-78
2022/12/05 08:46:46;;;;;;;;;;;;;;;2.82;100.00;96578.63;5096116;28;19953;-78
2022/12/05 08:49:12;;;;;;;;;;;;;;;2.85;100.00;96577.50;5096330;28;19952;-78
2022/12/05 08:51:38;;;;;;;;;;;;;;;2.89;100.00;96573.59;5096472;28;20368;-78
2022/12/05 08:54:04;;;;;;;;;;;;;;;2.94;100.00;96580.88;5085650;28;20324;-78
2022/12/05 08:56:31;;;;;;;;;;;;;;;2.98;100.00;96577.78;5094871;28;19956;-79
2022/12/05 08:58:58;;;;;;;;;;;;;;;3.00;100.00;96585.38;5086585;28;19968;-77
2022/12/05 09:01:30;;;;;;;;;;;;;;;2.93;100.00;96590.44;5096120;28;19959;-76
2022/12/05 09:03:57;;;;;;;;;;;;;;;2.93;100.00;96589.63;5095970;28;20429;-77
2022/12/05 09:06:23;;;;;;;;;;;;;;;2.92;100.00;96586.22;5094788;28;20419;-77
2022/12/05 09:08:53;;;;;;;;;;;;;;;2.95;100.00;96590.25;5095798;28;19963;-77
2022/12/05 09:11:22;;;;;;;;;;;;;;;2.97;100.00;96598.69;5094992;28;19956;-76
2022/12/05 09:13:49;;;;;;;;;;;;;;;3.01;100.00;96612.91;5096116;28;19950;-76
2022/12/05 09:16:20;;;;;;;;;;;;;;;2.99;100.00;96607.91;5096088;28;19948;-76
2022/12/05 09:18:46;;;;;;;;;;;;;;;3.01;100.00;96618.09;5095868;28;19955;-76
2022/12/05 09:21:16;;;;;;;;;;;;;;;3.03;100.00;96627.31;5095572;28;19956;-76
2022/12/05 09:23:43;;;;;;;;;;;;;;;3.05;100.00;96620.19;5096431;28;19952;-76
2022/12/05 09:26:10;;;;;;;;;;;;;;;3.06;100.00;96623.56;5095661;28;19947;-77
2022/12/05 09:28:36;;;;;;;;;;;;;;;3.10;100.00;96617.09;5094679;28;19953;-77
2022/12/05 09:31:04;;;;;;;;;;;;;;;3.14;100.00;96623.56;5095371;28;19971;-77
2022/12/05 09:33:32;;;;;;;;;;;;;;;3.17;100.00;96625.84;5095272;28;19972;-77
2022/12/05 09:35:57;;;;;;;;;;;;;;;3.18;100.00;96622.25;5095225;28;19970;-77
2022/12/05 09:38:23;;;;;;;;;;;;;;;3.20;100.00;96625.50;5095260;28;19997;-77
2022/12/05 09:40:53;;;;;;;;;;;;;;;3.23;100.00;96626.94;5094079;28;19997;-77
2022/12/05 09:43:18;;;;;;;;;;;;;;;3.23;100.00;96630.34;5095298;28;19952;-76
2022/12/05 09:45:48;;;;;;;;;;;;;;;3.23;100.00;96632.13;5094042;28;19949;-76
2022/12/05 09:48:15;;;;;;;;;;;;;;;3.23;100.00;96639.88;5094016;28;19955;-76
2022/12/05 09:50:44;;;;;;;;;;;;;;;3.25;100.00;96641.38;5095231;28;19953;-76
2022/12/05 09:53:21;;;;;;;;;;;;;;;3.29;100.00;96631.44;5094916;28;20436;-76
2022/12/05 09:55:48;;;;;;;;;;;;;;;3.25;100.00;96638.78;5095285;28;19953;-76
2022/12/05 09:58:26;;;;;;;;;;;;;;;3.24;100.00;96638.94;5095042;28;19953;-76
2022/12/05 10:01:00;;;;;;;;;;;;;;;3.25;100.00;96643.97;5093393;28;20412;-76
2022/12/05 10:03:44;;;;;;;;;;;;;;;3.30;100.00;96638.25;5095057;28;19948;-76
2022/12/05 10:06:12;;;;;;;;;;;;;;;3.35;100.00;96630.78;5093608;28;19955;-76
2022/12/05 10:08:54;;;;;;;;;;;;;;;3.40;100.00;96638.06;5094937;28;20438;-75
2022/12/05 10:11:26;;;;;;;;;;;;;;;3.44;100.00;96634.97;5094737;28;20297;-76
2022/12/05 10:13:59;;;;;;;;;;;;;;;3.51;100.00;96642.88;5086258;28;19967;-75
2022/12/05 10:16:29;;;;;;;;;;;;;;;3.55;100.00;96638.97;5094902;28;19948;-76
2022/12/05 10:19:01;;;;;;;;;;;;;;;3.56;100.00;96640.59;5079833;28;20329;-75
2022/12/05 10:21:30;;;;;;;;;;;;;;;3.58;100.00;96640.41;5094602;28;19946;-76
2022/12/05 10:23:58;;;;;;;;;;;;;;;3.61;100.00;96640.91;5094408;28;19972;-75
2022/12/05 10:26:38;;;;;;;;;;;;;;;3.69;100.00;96641.84;5093579;28;19975;-75
2022/12/05 10:29:16;;;;;;;;;;;;;;;3.73;100.00;96633.53;5094621;28;19946;-75
2022/12/05 10:31:43;;;;;;;;;;;;;;;3.74;100.00;96622.19;5093107;28;20320;-75
2022/12/05 10:34:09;;;;;;;;;;;;;;;3.78;100.00;96615.69;5094381;28;20003;-76
2022/12/05 10:36:35;;;;;;;;;;;;;;;3.84;100.00;96620.19;5094215;28;20473;-75
2022/12/05 10:39:01;;;;;;;;;;;;;;;3.86;100.00;96620.00;5094173;28;19952;-76
2022/12/05 10:41:27;;;;;;;;;;;;;;;3.88;100.00;96618.03;5094174;28;19961;-75
2022/12/05 10:43:55;;;;;;;;;;;;;;;3.88;100.00;96619.84;5094148;28;19957;-76
2022/12/05 10:46:21;;;;;;;;;;;;;;;3.86;100.00;96610.47;5094042;28;19947;-75
2022/12/05 10:48:47;;;;;;;;;;;;;;;3.84;100.00;96617.59;5093965;28;19945;-76
2022/12/05 10:51:15;;;;;;;;;;;;;;;3.84;100.00;96617.59;5075942;28;20019;-76
2022/12/05 10:53:43;;;;;;;;;;;;;;;3.88;100.00;96625.03;5093967;28;20335;-76
2022/12/05 10:56:27;;;;;;;;;;;;;;;3.92;100.00;96621.91;5093923;28;19961;-76
2022/12/05 10:58:56;;;;;;;;;;;;;;;3.98;100.00;96621.22;5093881;28;19948;-75
2022/12/05 11:01:22;;;;;;;;;;;;;;;4.08;100.00;96621.03;5093860;28;19948;-75
2022/12/05 11:03:55;;;;;;;;;;;;;;;4.18;100.00;96616.41;5093807;28;19947;-75
2022/12/05 11:06:28;;;;;;;;;;;;;;;4.30;100.00;96613.41;5093963;28;19957;-76
2022/12/05 11:08:56;;;;;;;;;;;;;;;4.42;100.00;96607.63;5094278;28;20435;-76
2022/12/05 11:11:27;;;;;;;;;;;;;;;4.54;100.00;96605.41;5093794;28;19950;-75
2022/12/05 11:13:56;;;;;;;;;;;;;;;4.64;100.00;96598.19;5093559;28;19957;-77
2022/12/05 11:16:23;;;;;;;;;;;;;;;4.72;100.00;96588.69;5078878;28;20310;-76
2022/12/05 11:18:49;;;;;;;;;;;;;;;4.78;100.00;96591.38;5093748;28;19955;-76
2022/12/05 11:21:18;;;;;;;;;;;;;;;4.80;100.00;96586.03;5093807;28;20047;-76
2022/12/05 11:23:44;;;;;;;;;;;;;;;4.79;100.00;96582.63;5092366;28;19957;-76
2022/12/05 11:26:33;;;;;;;;;;;;;;;4.81;100.00;96587.66;5093684;28;20411;-76
2022/12/05 11:28:59;;;;;;;;;;;;;;;4.82;100.00;96586.66;5080923;28;19949;-76
2022/12/05 11:31:26;;;;;;;;;;;;;;;4.83;100.00;96593.44;5093942;28;20399;-76
2022/12/05 11:34:16;;;;;;;;;;;;;;;4.88;100.00;96597.13;5093580;28;20031;-76
2022/12/05 11:37:04;;;;;;;;;;;;;;;5.00;100.00;96601.91;5093576;28;19968;-76
2022/12/05 11:39:30;;;;;;;;;;;;;;;5.09;100.00;96595.63;5093631;28;19964;-76
2022/12/05 11:42:08;;;;;;;;;;;;;;;5.18;99.79;96591.13;5093435;28;19957;-76
2022/12/05 11:44:51;;;;;;;;;;;;;;;5.25;100.00;96597.25;5093597;28;19947;-77
2022/12/05 11:47:17;;;;;;;;;;;;;;;5.30;99.96;96594.91;5093644;28;19965;-76
2022/12/05 11:49:55;;;;;;;;;;;;;;;5.24;98.09;96582.63;5092516;28;19967;-76
2022/12/05 11:52:21;;;;;;;;;;;;;;;5.14;96.30;96576.88;5093554;28;19964;-76
2022/12/05 11:55:13;;;;;;;;;;;;;;;5.08;98.76;96594.00;5092115;28;19981;-76
2022/12/05 11:57:57;;;;;;;;;;;;;;;5.07;99.57;96590.59;5091243;28;20398;-76
2022/12/05 12:00:26;;;;;;;;;;;;;;;5.15;99.85;96588.91;5093192;28;19959;-76
2022/12/05 12:02:58;;;;;;;;;;;;;;;5.22;100.00;96598.41;5093603;28;19945;-76
2022/12/05 12:05:30;;;;;;;;;;;;;;;5.27;100.00;96597.84;5093236;28;19963;-76
2022/12/05 12:07:56;;;;;;;;;;;;;;;5.26;97.74;96581.44;5093262;28;20422;-76
2022/12/05 12:10:33;;;;;;;;;;;;;;;5.25;99.17;96585.06;5093527;28;19945;-76
2022/12/05 12:13:04;;;;;;;;;;;;;;;5.19;98.33;96574.56;5093247;28;19974;-76
2022/12/05 12:15:38;;;;;;;;;;;;;;;5.18;99.95;96573.75;5093322;28;20009;-76
2022/12/05 12:18:15;;;;;;;;;;;;;;;5.23;100.00;96579.22;5093248;28;20309;-76
2022/12/05 12:20:59;;;;;;;;;;;;;;;5.25;99.77;96577.25;5093051;28;19944;-76
2022/12/05 12:23:25;;;;;;;;;;;;;;;5.23;97.84;96573.22;5095815;28;20328;-76
2022/12/05 12:25:51;;;;;;;;;;;;;;;5.20;96.50;96581.38;5096828;28;20041;-76
2022/12/05 12:28:24;;;;;;;;;;;;;;;5.07;94.88;96582.00;5096883;28;20013;-76
2022/12/05 12:30:50;;;;;;;;;;;;;;;4.99;96.73;96595.88;5095710;28;20333;-76
2022/12/05 12:33:19;;;;;;;;;;;;;;;4.98;97.66;96602.09;5095347;28;19970;-76
2022/12/05 12:35:44;;;;;;;;;;;;;;;4.98;99.23;96603.88;5096955;28;19974;-75
2022/12/05 12:38:16;;;;;;;;;;;;;;;4.99;98.40;96592.47;5096618;28;19999;-77
2022/12/05 12:40:47;;;;;;;;;;;;;;;5.00;97.66;96587.13;5096882;28;19950;-76
2022/12/05 12:43:26;;;;;;;;;;;;;;;5.01;99.09;96600.91;5095769;28;20263;-76
2022/12/05 12:45:56;;;;;;;;;;;;;;;4.99;95.36;96580.28;5119858;27;19955;-77
2022/12/05 12:48:32;;;;;;;;;;;;;;;4.97;95.43;96582.25;5096428;28;19959;-77
2022/12/05 12:51:00;;;;;;;;;;;;;;;4.95;96.65;96583.44;5096496;28;19946;-77
2022/12/05 12:53:45;;;;;;;;;;;;;;;4.99;98.13;96595.09;5096451;28;19969;-77
2022/12/05 12:56:11;;;;;;;;;;;;;;;4.95;96.33;96586.81;5096344;28;19955;-77
2022/12/05 12:58:46;;;;;;;;;;;;;;;4.94;94.81;96582.63;5096120;28;19951;-77
2022/12/05 13:01:12;;;;;;;;;;;;;;;4.95;97.92;96596.41;5096099;28;19956;-77
2022/12/05 13:04:01;;;;;;;;;;;;;;;4.98;97.93;96596.88;5096326;28;20405;-77